sensor_id;sensor_type;location;lat;lon;timestamp;temperature;humidity
78054;DHT22;67726;45.636;11.752;2023-09-30T00:00:46;18.90;73.80
78054;DHT22;67726;45.636;11.752;2023-09-30T00:03:12;18.80;73.60
78054;DHT22;67726;45.636;11.752;2023-09-30T00:05:38;18.90;73.20
78054;DHT22;67726;45.636;11.752;2023-09-30T00:08:06;18.80;73.20
78054;DHT22;67726;45.636;11.752;2023-09-30T00:10:32;18.80;73.70
78054;DHT22;67726;45.636;11.752;2023-09-30T00:12:58;18.80;73.70
78054;DHT22;67726;45.636;11.752;2023-09-30T00:15:24;18.80;74.00
78054;DHT22;67726;45.636;11.752;2023-09-30T00:17:50;18.70;73.70
78054;DHT22;67726;45.636;11.752;2023-09-30T00:20:16;18.60;74.20
78054;DHT22;67726;45.636;11.752;2023-09-30T00:22:42;18.60;73.50
78054;DHT22;67726;45.636;11.752;2023-09-30T00:25:08;18.50;74.60
78054;DHT22;67726;45.636;11.752;2023-09-30T00:27:34;18.50;75.00
78054;DHT22;67726;45.636;11.752;2023-09-30T00:29:59;18.50;75.80
78054;DHT22;67726;45.636;11.752;2023-09-30T00:32:25;18.50;75.80
78054;DHT22;67726;45.636;11.752;2023-09-30T00:34:51;18.40;76.20
78054;DHT22;67726;45.636;11.752;2023-09-30T00:37:18;18.40;76.40
78054;DHT22;67726;45.636;11.752;2023-09-30T00:39:43;18.50;75.90
78054;DHT22;67726;45.636;11.752;2023-09-30T00:42:10;18.50;75.60
78054;DHT22;67726;45.636;11.752;2023-09-30T00:44:36;18.50;75.30
78054;DHT22;67726;45.636;11.752;2023-09-30T00:47:03;18.40;75.60
78054;DHT22;67726;45.636;11.752;2023-09-30T00:49:30;18.50;75.50
78054;DHT22;67726;45.636;11.752;2023-09-30T00:51:56;18.50;75.60
78054;DHT22;67726;45.636;11.752;2023-09-30T00:54:24;18.60;75.30
78054;DHT22;67726;45.636;11.752;2023-09-30T00:56:51;18.50;75.10
78054;DHT22;67726;45.636;11.752;2023-09-30T00:59:18;18.60;75.20
78054;DHT22;67726;45.636;11.752;2023-09-30T01:01:45;18.60;76.60
78054;DHT22;67726;45.636;11.752;2023-09-30T01:04:12;18.60;76.40
78054;DHT22;67726;45.636;11.752;2023-09-30T01:06:38;18.60;76.20
78054;DHT22;67726;45.636;11.752;2023-09-30T01:09:04;18.60;76.40
78054;DHT22;67726;45.636;11.752;2023-09-30T01:11:30;18.60;76.10
78054;DHT22;67726;45.636;11.752;2023-09-30T01:13:55;18.50;76.10
78054;DHT22;67726;45.636;11.752;2023-09-30T01:16:21;18.50;76.00
78054;DHT22;67726;45.636;11.752;2023-09-30T01:18:47;18.50;75.60
78054;DHT22;67726;45.636;11.752;2023-09-30T01:21:12;18.50;75.50
78054;DHT22;67726;45.636;11.752;2023-09-30T01:23:39;18.50;75.60
78054;DHT22;67726;45.636;11.752;2023-09-30T01:26:06;18.50;75.60
78054;DHT22;67726;45.636;11.752;2023-09-30T01:28:32;18.50;75.50
78054;DHT22;67726;45.636;11.752;2023-09-30T01:30:58;18.40;75.50
78054;DHT22;67726;45.636;11.752;2023-09-30T01:33:24;18.40;75.50
78054;DHT22;67726;45.636;11.752;2023-09-30T01:35:50;18.40;75.50
78054;DHT22;67726;45.636;11.752;2023-09-30T01:38:15;18.30;75.90
78054;DHT22;67726;45.636;11.752;2023-09-30T01:40:41;18.40;78.10
78054;DHT22;67726;45.636;11.752;2023-09-30T01:43:08;18.30;78.50
78054;DHT22;67726;45.636;11.752;2023-09-30T01:45:33;18.30;77.40
78054;DHT22;67726;45.636;11.752;2023-09-30T01:48:01;18.30;77.30
78054;DHT22;67726;45.636;11.752;2023-09-30T01:50:27;18.30;77.00
78054;DHT22;67726;45.636;11.752;2023-09-30T01:52:52;18.20;76.80
78054;DHT22;67726;45.636;11.752;2023-09-30T01:55:18;18.20;76.90
78054;DHT22;67726;45.636;11.752;2023-09-30T01:57:43;18.20;76.90
78054;DHT22;67726;45.636;11.752;2023-09-30T02:00:09;18.20;76.90
78054;DHT22;67726;45.636;11.752;2023-09-30T02:02:35;18.20;77.10
78054;DHT22;67726;45.636;11.752;2023-09-30T02:05:02;18.20;76.70
78054;DHT22;67726;45.636;11.752;2023-09-30T02:07:28;18.10;78.30
78054;DHT22;67726;45.636;11.752;2023-09-30T02:09:55;18.20;77.00
78054;DHT22;67726;45.636;11.752;2023-09-30T02:12:21;18.10;78.60
78054;DHT22;67726;45.636;11.752;2023-09-30T02:14:46;18.00;78.50
78054;DHT22;67726;45.636;11.752;2023-09-30T02:17:12;18.10;78.60
78054;DHT22;67726;45.636;11.752;2023-09-30T02:19:39;18.00;78.60
78054;DHT22;67726;45.636;11.752;2023-09-30T02:22:06;18.00;78.70
78054;DHT22;67726;45.636;11.752;2023-09-30T02:24:32;18.00;79.10
78054;DHT22;67726;45.636;11.752;2023-09-30T02:26:58;17.90;79.20
78054;DHT22;67726;45.636;11.752;2023-09-30T02:29:23;17.90;79.20
78054;DHT22;67726;45.636;11.752;2023-09-30T02:31:50;17.90;79.30
78054;DHT22;67726;45.636;11.752;2023-09-30T02:34:16;17.90;79.00
78054;DHT22;67726;45.636;11.752;2023-09-30T02:36:42;17.90;79.00
78054;DHT22;67726;45.636;11.752;2023-09-30T02:39:07;17.90;79.10
78054;DHT22;67726;45.636;11.752;2023-09-30T02:41:36;17.90;79.20
78054;DHT22;67726;45.636;11.752;2023-09-30T02:44:03;17.90;79.40
78054;DHT22;67726;45.636;11.752;2023-09-30T02:46:29;17.90;79.00
78054;DHT22;67726;45.636;11.752;2023-09-30T02:48:55;18.00;79.10
78054;DHT22;67726;45.636;11.752;2023-09-30T02:51:20;18.00;79.20
78054;DHT22;67726;45.636;11.752;2023-09-30T02:53:46;17.90;79.30
78054;DHT22;67726;45.636;11.752;2023-09-30T02:56:13;18.00;79.60
78054;DHT22;67726;45.636;11.752;2023-09-30T02:58:39;17.90;79.70
78054;DHT22;67726;45.636;11.752;2023-09-30T03:01:06;17.80;79.60
78054;DHT22;67726;45.636;11.752;2023-09-30T03:03:32;17.90;79.30
78054;DHT22;67726;45.636;11.752;2023-09-30T03:05:59;17.90;79.40
78054;DHT22;67726;45.636;11.752;2023-09-30T03:08:26;17.90;79.20
78054;DHT22;67726;45.636;11.752;2023-09-30T03:10:52;17.90;79.30
78054;DHT22;67726;45.636;11.752;2023-09-30T03:13:18;17.80;79.40
78054;DHT22;67726;45.636;11.752;2023-09-30T03:15:47;17.80;79.40
78054;DHT22;67726;45.636;11.752;2023-09-30T03:18:15;17.90;79.60
78054;DHT22;67726;45.636;11.752;2023-09-30T03:20:43;17.90;79.20
78054;DHT22;67726;45.636;11.752;2023-09-30T03:23:09;17.90;79.70
78054;DHT22;67726;45.636;11.752;2023-09-30T03:25:35;17.90;79.40
78054;DHT22;67726;45.636;11.752;2023-09-30T03:28:02;17.90;79.30
78054;DHT22;67726;45.636;11.752;2023-09-30T03:30:27;17.90;79.20
78054;DHT22;67726;45.636;11.752;2023-09-30T03:32:55;17.90;79.40
78054;DHT22;67726;45.636;11.752;2023-09-30T03:35:20;17.90;79.80
78054;DHT22;67726;45.636;11.752;2023-09-30T03:37:47;17.90;79.30
78054;DHT22;67726;45.636;11.752;2023-09-30T03:40:14;18.00;79.60
78054;DHT22;67726;45.636;11.752;2023-09-30T03:42:43;18.00;79.60
78054;DHT22;67726;45.636;11.752;2023-09-30T03:45:10;18.00;79.40
78054;DHT22;67726;45.636;11.752;2023-09-30T03:47:37;18.00;79.40
78054;DHT22;67726;45.636;11.752;2023-09-30T03:50:03;18.00;79.60
78054;DHT22;67726;45.636;11.752;2023-09-30T03:52:30;18.10;79.90
78054;DHT22;67726;45.636;11.752;2023-09-30T03:55:01;18.10;79.90
78054;DHT22;67726;45.636;11.752;2023-09-30T03:57:33;18.10;79.70
78054;DHT22;67726;45.636;11.752;2023-09-30T04:00:01;18.10;79.40
78054;DHT22;67726;45.636;11.752;2023-09-30T04:02:31;18.10;79.40
78054;DHT22;67726;45.636;11.752;2023-09-30T04:04:57;18.20;78.10
78054;DHT22;67726;45.636;11.752;2023-09-30T04:07:23;18.10;79.40
78054;DHT22;67726;45.636;11.752;2023-09-30T04:09:54;18.20;78.40
78054;DHT22;67726;45.636;11.752;2023-09-30T04:12:21;18.30;78.20
78054;DHT22;67726;45.636;11.752;2023-09-30T04:14:49;18.30;77.80
78054;DHT22;67726;45.636;11.752;2023-09-30T04:17:14;18.40;77.60
78054;DHT22;67726;45.636;11.752;2023-09-30T04:19:40;18.40;77.70
78054;DHT22;67726;45.636;11.752;2023-09-30T04:22:06;18.50;77.80
78054;DHT22;67726;45.636;11.752;2023-09-30T04:24:31;18.50;77.80
78054;DHT22;67726;45.636;11.752;2023-09-30T04:26:57;18.60;77.50
78054;DHT22;67726;45.636;11.752;2023-09-30T04:29:28;18.60;77.60
78054;DHT22;67726;45.636;11.752;2023-09-30T04:31:55;18.50;77.40
78054;DHT22;67726;45.636;11.752;2023-09-30T04:34:21;18.70;77.70
78054;DHT22;67726;45.636;11.752;2023-09-30T04:36:47;18.60;77.60
78054;DHT22;67726;45.636;11.752;2023-09-30T04:39:13;18.60;77.50
78054;DHT22;67726;45.636;11.752;2023-09-30T04:41:40;18.60;77.70
78054;DHT22;67726;45.636;11.752;2023-09-30T04:44:09;18.40;78.00
78054;DHT22;67726;45.636;11.752;2023-09-30T04:46:36;18.40;77.90
78054;DHT22;67726;45.636;11.752;2023-09-30T04:49:08;18.40;77.80
78054;DHT22;67726;45.636;11.752;2023-09-30T04:51:34;18.30;77.50
78054;DHT22;67726;45.636;11.752;2023-09-30T04:54:00;18.20;77.90
78054;DHT22;67726;45.636;11.752;2023-09-30T04:56:27;18.10;79.10
78054;DHT22;67726;45.636;11.752;2023-09-30T04:58:53;18.00;79.20
78054;DHT22;67726;45.636;11.752;2023-09-30T05:01:18;18.10;79.80
78054;DHT22;67726;45.636;11.752;2023-09-30T05:03:45;18.00;79.80
78054;DHT22;67726;45.636;11.752;2023-09-30T05:06:14;17.90;80.40
78054;DHT22;67726;45.636;11.752;2023-09-30T05:08:39;18.00;80.10
78054;DHT22;67726;45.636;11.752;2023-09-30T05:11:05;18.00;79.70
78054;DHT22;67726;45.636;11.752;2023-09-30T05:13:30;17.90;80.00
78054;DHT22;67726;45.636;11.752;2023-09-30T05:15:56;17.80;80.10
78054;DHT22;67726;45.636;11.752;2023-09-30T05:18:22;17.90;80.00
78054;DHT22;67726;45.636;11.752;2023-09-30T05:20:49;17.90;79.90
78054;DHT22;67726;45.636;11.752;2023-09-30T05:23:15;17.90;80.10
78054;DHT22;67726;45.636;11.752;2023-09-30T05:25:40;17.90;80.00
78054;DHT22;67726;45.636;11.752;2023-09-30T05:28:07;17.90;80.10
78054;DHT22;67726;45.636;11.752;2023-09-30T05:30:34;18.00;79.90
78054;DHT22;67726;45.636;11.752;2023-09-30T05:33:00;18.00;80.60
78054;DHT22;67726;45.636;11.752;2023-09-30T05:35:26;17.90;80.40
78054;DHT22;67726;45.636;11.752;2023-09-30T05:37:53;18.00;80.30
78054;DHT22;67726;45.636;11.752;2023-09-30T05:40:20;18.00;80.20
78054;DHT22;67726;45.636;11.752;2023-09-30T05:42:56;18.00;80.10
78054;DHT22;67726;45.636;11.752;2023-09-30T05:45:30;17.90;80.60
78054;DHT22;67726;45.636;11.752;2023-09-30T05:47:56;17.90;80.60
78054;DHT22;67726;45.636;11.752;2023-09-30T05:50:24;18.10;80.40
78054;DHT22;67726;45.636;11.752;2023-09-30T05:52:52;18.10;80.90
78054;DHT22;67726;45.636;11.752;2023-09-30T05:55:18;18.20;79.70
78054;DHT22;67726;45.636;11.752;2023-09-30T05:57:50;18.40;79.90
78054;DHT22;67726;45.636;11.752;2023-09-30T06:00:17;18.50;79.10
78054;DHT22;67726;45.636;11.752;2023-09-30T06:02:50;18.70;79.10
78054;DHT22;67726;45.636;11.752;2023-09-30T06:05:17;18.90;78.50
78054;DHT22;67726;45.636;11.752;2023-09-30T06:07:51;19.20;78.30
78054;DHT22;67726;45.636;11.752;2023-09-30T06:10:17;19.40;78.10
78054;DHT22;67726;45.636;11.752;2023-09-30T06:12:51;19.60;77.80
78054;DHT22;67726;45.636;11.752;2023-09-30T06:15:20;19.90;77.20
78054;DHT22;67726;45.636;11.752;2023-09-30T06:17:50;20.20;77.00
78054;DHT22;67726;45.636;11.752;2023-09-30T06:20:19;20.40;76.10
78054;DHT22;67726;45.636;11.752;2023-09-30T06:22:48;20.60;76.10
78054;DHT22;67726;45.636;11.752;2023-09-30T06:25:17;20.80;75.30
78054;DHT22;67726;45.636;11.752;2023-09-30T06:27:47;21.00;73.40
78054;DHT22;67726;45.636;11.752;2023-09-30T06:30:16;21.20;72.50
78054;DHT22;67726;45.636;11.752;2023-09-30T06:32:43;21.20;71.50
78054;DHT22;67726;45.636;11.752;2023-09-30T06:35:09;21.10;71.70
78054;DHT22;67726;45.636;11.752;2023-09-30T06:37:38;21.00;71.40
78054;DHT22;67726;45.636;11.752;2023-09-30T06:40:08;20.90;71.40
78054;DHT22;67726;45.636;11.752;2023-09-30T06:42:35;21.00;70.20
78054;DHT22;67726;45.636;11.752;2023-09-30T06:45:01;21.20;70.70
78054;DHT22;67726;45.636;11.752;2023-09-30T06:47:32;21.60;70.20
78054;DHT22;67726;45.636;11.752;2023-09-30T06:50:00;22.00;69.60
78054;DHT22;67726;45.636;11.752;2023-09-30T06:52:26;22.60;67.30
78054;DHT22;67726;45.636;11.752;2023-09-30T06:54:53;22.90;66.00
78054;DHT22;67726;45.636;11.752;2023-09-30T06:57:18;23.30;65.30
78054;DHT22;67726;45.636;11.752;2023-09-30T06:59:44;23.50;64.00
78054;DHT22;67726;45.636;11.752;2023-09-30T07:02:10;23.70;62.70
78054;DHT22;67726;45.636;11.752;2023-09-30T07:04:36;24.00;62.60
78054;DHT22;67726;45.636;11.752;2023-09-30T07:07:01;24.20;61.10
78054;DHT22;67726;45.636;11.752;2023-09-30T07:09:27;24.40;61.80
78054;DHT22;67726;45.636;11.752;2023-09-30T07:11:53;24.70;60.70
78054;DHT22;67726;45.636;11.752;2023-09-30T07:14:19;25.10;59.70
78054;DHT22;67726;45.636;11.752;2023-09-30T07:16:45;25.50;58.30
78054;DHT22;67726;45.636;11.752;2023-09-30T07:19:11;25.90;57.40
78054;DHT22;67726;45.636;11.752;2023-09-30T07:21:36;26.20;56.40
78054;DHT22;67726;45.636;11.752;2023-09-30T07:24:03;26.20;55.50
78054;DHT22;67726;45.636;11.752;2023-09-30T07:26:29;26.30;54.30
78054;DHT22;67726;45.636;11.752;2023-09-30T07:28:54;26.10;52.50
78054;DHT22;67726;45.636;11.752;2023-09-30T07:31:22;26.10;53.60
78054;DHT22;67726;45.636;11.752;2023-09-30T07:33:49;26.20;53.80
78054;DHT22;67726;45.636;11.752;2023-09-30T07:36:14;26.40;50.20
78054;DHT22;67726;45.636;11.752;2023-09-30T07:38:40;26.50;51.80
78054;DHT22;67726;45.636;11.752;2023-09-30T07:41:06;26.90;51.00
78054;DHT22;67726;45.636;11.752;2023-09-30T07:43:31;27.10;48.60
78054;DHT22;67726;45.636;11.752;2023-09-30T07:45:57;27.10;49.80
78054;DHT22;67726;45.636;11.752;2023-09-30T07:48:23;27.10;49.00
78054;DHT22;67726;45.636;11.752;2023-09-30T07:50:50;27.30;49.40
78054;DHT22;67726;45.636;11.752;2023-09-30T07:53:16;27.30;46.80
78054;DHT22;67726;45.636;11.752;2023-09-30T07:55:41;27.40;47.90
78054;DHT22;67726;45.636;11.752;2023-09-30T07:58:07;27.70;48.20
78054;DHT22;67726;45.636;11.752;2023-09-30T08:00:33;27.80;46.20
78054;DHT22;67726;45.636;11.752;2023-09-30T08:02:59;27.80;46.50
78054;DHT22;67726;45.636;11.752;2023-09-30T08:05:26;28.20;45.90
78054;DHT22;67726;45.636;11.752;2023-09-30T08:07:52;28.50;44.90
78054;DHT22;67726;45.636;11.752;2023-09-30T08:10:18;28.70;42.60
78054;DHT22;67726;45.636;11.752;2023-09-30T08:12:43;28.90;41.90
78054;DHT22;67726;45.636;11.752;2023-09-30T08:15:13;29.10;41.30
78054;DHT22;67726;45.636;11.752;2023-09-30T08:17:40;29.40;41.40
78054;DHT22;67726;45.636;11.752;2023-09-30T08:20:06;29.70;39.90
78054;DHT22;67726;45.636;11.752;2023-09-30T08:22:34;30.20;39.30
78054;DHT22;67726;45.636;11.752;2023-09-30T08:24:59;30.50;38.80
78054;DHT22;67726;45.636;11.752;2023-09-30T08:27:25;30.70;37.90
78054;DHT22;67726;45.636;11.752;2023-09-30T08:29:51;31.00;36.60
78054;DHT22;67726;45.636;11.752;2023-09-30T08:32:17;31.00;37.10
78054;DHT22;67726;45.636;11.752;2023-09-30T08:34:43;31.20;36.60
78054;DHT22;67726;45.636;11.752;2023-09-30T08:37:09;30.90;34.60
78054;DHT22;67726;45.636;11.752;2023-09-30T08:39:39;30.70;35.90
78054;DHT22;67726;45.636;11.752;2023-09-30T08:42:09;30.80;35.80
78054;DHT22;67726;45.636;11.752;2023-09-30T08:44:39;30.70;37.00
78054;DHT22;67726;45.636;11.752;2023-09-30T08:47:06;31.20;36.80
78054;DHT22;67726;45.636;11.752;2023-09-30T08:49:40;31.20;36.00
78054;DHT22;67726;45.636;11.752;2023-09-30T08:52:10;31.70;36.30
78054;DHT22;67726;45.636;11.752;2023-09-30T08:54:38;32.40;34.80
78054;DHT22;67726;45.636;11.752;2023-09-30T08:57:04;33.10;33.80
78054;DHT22;67726;45.636;11.752;2023-09-30T08:59:31;33.50;32.80
78054;DHT22;67726;45.636;11.752;2023-09-30T09:02:00;33.80;31.40
78054;DHT22;67726;45.636;11.752;2023-09-30T09:04:26;33.90;30.90
78054;DHT22;67726;45.636;11.752;2023-09-30T09:06:53;34.30;29.30
78054;DHT22;67726;45.636;11.752;2023-09-30T09:09:20;34.40;29.30
78054;DHT22;67726;45.636;11.752;2023-09-30T09:11:48;34.60;29.80
78054;DHT22;67726;45.636;11.752;2023-09-30T09:14:14;33.60;30.30
78054;DHT22;67726;45.636;11.752;2023-09-30T09:16:53;34.10;30.20
78054;DHT22;67726;45.636;11.752;2023-09-30T09:19:19;34.50;29.40
78054;DHT22;67726;45.636;11.752;2023-09-30T09:22:00;34.70;28.40
78054;DHT22;67726;45.636;11.752;2023-09-30T09:24:33;34.20;29.10
78054;DHT22;67726;45.636;11.752;2023-09-30T09:27:10;34.40;29.20
78054;DHT22;67726;45.636;11.752;2023-09-30T09:29:36;34.20;28.80
78054;DHT22;67726;45.636;11.752;2023-09-30T09:32:15;34.60;28.60
78054;DHT22;67726;45.636;11.752;2023-09-30T09:34:42;35.50;28.30
78054;DHT22;67726;45.636;11.752;2023-09-30T09:37:20;36.20;27.80
78054;DHT22;67726;45.636;11.752;2023-09-30T09:39:53;36.30;25.50
78054;DHT22;67726;45.636;11.752;2023-09-30T09:42:31;35.30;26.50
78054;DHT22;67726;45.636;11.752;2023-09-30T09:45:00;35.80;27.10
78054;DHT22;67726;45.636;11.752;2023-09-30T09:47:26;36.30;27.10
78054;DHT22;67726;45.636;11.752;2023-09-30T09:49:53;37.20;25.90
78054;DHT22;67726;45.636;11.752;2023-09-30T09:52:21;37.90;24.00
78054;DHT22;67726;45.636;11.752;2023-09-30T09:54:47;38.00;24.20
78054;DHT22;67726;45.636;11.752;2023-09-30T09:57:14;38.60;23.70
78054;DHT22;67726;45.636;11.752;2023-09-30T09:59:43;38.70;22.70
78054;DHT22;67726;45.636;11.752;2023-09-30T10:02:11;38.60;22.30
78054;DHT22;67726;45.636;11.752;2023-09-30T10:04:49;38.80;22.20
78054;DHT22;67726;45.636;11.752;2023-09-30T10:07:24;38.40;22.30
78054;DHT22;67726;45.636;11.752;2023-09-30T10:09:52;38.10;22.30
78054;DHT22;67726;45.636;11.752;2023-09-30T10:12:19;37.70;23.60
78054;DHT22;67726;45.636;11.752;2023-09-30T10:14:47;38.60;22.20
78054;DHT22;67726;45.636;11.752;2023-09-30T10:17:13;38.90;21.60
78054;DHT22;67726;45.636;11.752;2023-09-30T10:20:05;39.20;21.50
78054;DHT22;67726;45.636;11.752;2023-09-30T10:22:32;39.10;21.20
78054;DHT22;67726;45.636;11.752;2023-09-30T10:25:01;38.80;21.10
78054;DHT22;67726;45.636;11.752;2023-09-30T10:35:19;38.40;20.70
78054;DHT22;67726;45.636;11.752;2023-09-30T10:37:45;38.20;20.60
78054;DHT22;67726;45.636;11.752;2023-09-30T10:40:30;38.80;20.70
78054;DHT22;67726;45.636;11.752;2023-09-30T10:42:56;38.50;20.50
78054;DHT22;67726;45.636;11.752;2023-09-30T10:51:13;38.50;19.70
78054;DHT22;67726;45.636;11.752;2023-09-30T10:53:51;39.10;19.40
78054;DHT22;67726;45.636;11.752;2023-09-30T10:56:20;39.70;17.90
78054;DHT22;67726;45.636;11.752;2023-09-30T10:58:48;38.40;19.10
78054;DHT22;67726;45.636;11.752;2023-09-30T11:01:15;38.10;19.30
78054;DHT22;67726;45.636;11.752;2023-09-30T11:03:42;37.90;19.30
78054;DHT22;67726;45.636;11.752;2023-09-30T11:06:08;37.10;20.00
78054;DHT22;67726;45.636;11.752;2023-09-30T11:08:38;36.20;21.30
78054;DHT22;67726;45.636;11.752;2023-09-30T11:11:05;36.10;21.50
78054;DHT22;67726;45.636;11.752;2023-09-30T11:13:32;35.60;22.20
78054;DHT22;67726;45.636;11.752;2023-09-30T11:16:03;35.00;22.90
78054;DHT22;67726;45.636;11.752;2023-09-30T11:18:34;35.10;23.00
78054;DHT22;67726;45.636;11.752;2023-09-30T11:23:32;34.80;23.60
78054;DHT22;67726;45.636;11.752;2023-09-30T11:25:58;35.00;23.60
78054;DHT22;67726;45.636;11.752;2023-09-30T11:28:35;35.00;23.50
78054;DHT22;67726;45.636;11.752;2023-09-30T11:31:02;34.60;24.20
78054;DHT22;67726;45.636;11.752;2023-09-30T11:33:29;34.10;25.30
78054;DHT22;67726;45.636;11.752;2023-09-30T11:36:05;33.90;25.50
78054;DHT22;67726;45.636;11.752;2023-09-30T11:38:32;33.80;26.30
78054;DHT22;67726;45.636;11.752;2023-09-30T11:41:02;33.80;26.00
78054;DHT22;67726;45.636;11.752;2023-09-30T11:43:31;33.80;24.70
78054;DHT22;67726;45.636;11.752;2023-09-30T11:46:12;33.20;25.80
78054;DHT22;67726;45.636;11.752;2023-09-30T11:48:56;33.10;25.00
78054;DHT22;67726;45.636;11.752;2023-09-30T11:51:22;32.80;25.60
78054;DHT22;67726;45.636;11.752;2023-09-30T11:53:52;33.20;26.70
78054;DHT22;67726;45.636;11.752;2023-09-30T11:56:23;33.20;25.70
78054;DHT22;67726;45.636;11.752;2023-09-30T11:58:55;33.50;25.50
78054;DHT22;67726;45.636;11.752;2023-09-30T12:01:21;33.90;24.80
78054;DHT22;67726;45.636;11.752;2023-09-30T12:03:50;34.30;24.70
78054;DHT22;67726;45.636;11.752;2023-09-30T12:06:17;34.70;23.90
78054;DHT22;67726;45.636;11.752;2023-09-30T12:08:43;34.80;23.40
78054;DHT22;67726;45.636;11.752;2023-09-30T12:11:09;35.10;23.30
78054;DHT22;67726;45.636;11.752;2023-09-30T12:13:38;35.60;22.80
78054;DHT22;67726;45.636;11.752;2023-09-30T12:16:04;36.70;22.20
78054;DHT22;67726;45.636;11.752;2023-09-30T12:18:30;37.20;21.80
78054;DHT22;67726;45.636;11.752;2023-09-30T12:20:56;37.50;20.60
78054;DHT22;67726;45.636;11.752;2023-09-30T12:23:21;37.20;21.00
78054;DHT22;67726;45.636;11.752;2023-09-30T12:25:48;37.00;21.10
78054;DHT22;67726;45.636;11.752;2023-09-30T12:28:14;36.90;21.00
78054;DHT22;67726;45.636;11.752;2023-09-30T12:30:41;36.70;21.30
78054;DHT22;67726;45.636;11.752;2023-09-30T12:33:07;36.50;21.90
78054;DHT22;67726;45.636;11.752;2023-09-30T12:35:33;36.40;21.30
78054;DHT22;67726;45.636;11.752;2023-09-30T12:37:59;36.50;22.10
78054;DHT22;67726;45.636;11.752;2023-09-30T12:40:25;36.40;21.90
78054;DHT22;67726;45.636;11.752;2023-09-30T12:42:50;36.60;21.70
78054;DHT22;67726;45.636;11.752;2023-09-30T12:45:16;37.20;21.30
78054;DHT22;67726;45.636;11.752;2023-09-30T12:47:44;37.60;20.30
78054;DHT22;67726;45.636;11.752;2023-09-30T12:50:10;37.30;19.80
78054;DHT22;67726;45.636;11.752;2023-09-30T12:52:36;36.90;20.50
78054;DHT22;67726;45.636;11.752;2023-09-30T12:55:04;36.50;20.50
78054;DHT22;67726;45.636;11.752;2023-09-30T12:57:31;36.70;20.80
78054;DHT22;67726;45.636;11.752;2023-09-30T12:59:57;37.00;20.80
78054;DHT22;67726;45.636;11.752;2023-09-30T13:02:23;36.50;21.00
78054;DHT22;67726;45.636;11.752;2023-09-30T13:04:49;35.70;21.70
78054;DHT22;67726;45.636;11.752;2023-09-30T13:07:14;35.80;22.00
78054;DHT22;67726;45.636;11.752;2023-09-30T13:09:41;35.40;22.50
78054;DHT22;67726;45.636;11.752;2023-09-30T13:12:08;35.50;22.00
78054;DHT22;67726;45.636;11.752;2023-09-30T13:14:34;36.00;21.10
78054;DHT22;67726;45.636;11.752;2023-09-30T13:17:00;36.30;20.70
78054;DHT22;67726;45.636;11.752;2023-09-30T13:19:26;37.20;20.50
78054;DHT22;67726;45.636;11.752;2023-09-30T13:21:52;38.00;19.00
78054;DHT22;67726;45.636;11.752;2023-09-30T13:24:19;37.90;17.90
78054;DHT22;67726;45.636;11.752;2023-09-30T13:26:45;38.20;18.80
78054;DHT22;67726;45.636;11.752;2023-09-30T13:29:11;38.30;18.10
78054;DHT22;67726;45.636;11.752;2023-09-30T13:31:38;37.40;18.80
78054;DHT22;67726;45.636;11.752;2023-09-30T13:34:05;37.40;17.40
78054;DHT22;67726;45.636;11.752;2023-09-30T13:36:31;37.10;18.60
78054;DHT22;67726;45.636;11.752;2023-09-30T13:38:57;36.90;18.40
78054;DHT22;67726;45.636;11.752;2023-09-30T13:41:22;37.20;18.70
78054;DHT22;67726;45.636;11.752;2023-09-30T13:43:48;37.60;18.20
78054;DHT22;67726;45.636;11.752;2023-09-30T13:46:14;37.50;17.10
78054;DHT22;67726;45.636;11.752;2023-09-30T13:48:40;37.10;18.10
78054;DHT22;67726;45.636;11.752;2023-09-30T13:51:06;37.40;17.50
78054;DHT22;67726;45.636;11.752;2023-09-30T13:53:32;37.10;18.10
78054;DHT22;67726;45.636;11.752;2023-09-30T13:55:57;36.70;18.50
78054;DHT22;67726;45.636;11.752;2023-09-30T13:58:23;35.80;19.00
78054;DHT22;67726;45.636;11.752;2023-09-30T14:00:50;35.10;19.70
78054;DHT22;67726;45.636;11.752;2023-09-30T14:03:19;34.90;20.40
78054;DHT22;67726;45.636;11.752;2023-09-30T14:05:45;34.90;20.50
78054;DHT22;67726;45.636;11.752;2023-09-30T14:08:12;34.70;21.00
78054;DHT22;67726;45.636;11.752;2023-09-30T14:10:38;35.10;20.90
78054;DHT22;67726;45.636;11.752;2023-09-30T14:13:03;35.30;20.50
78054;DHT22;67726;45.636;11.752;2023-09-30T14:15:29;35.70;20.10
78054;DHT22;67726;45.636;11.752;2023-09-30T14:17:59;35.90;20.20
78054;DHT22;67726;45.636;11.752;2023-09-30T14:20:25;35.60;20.30
78054;DHT22;67726;45.636;11.752;2023-09-30T14:22:51;35.50;19.80
78054;DHT22;67726;45.636;11.752;2023-09-30T14:25:18;35.10;20.40
78054;DHT22;67726;45.636;11.752;2023-09-30T14:27:43;35.30;20.60
78054;DHT22;67726;45.636;11.752;2023-09-30T14:30:09;35.70;20.40
78054;DHT22;67726;45.636;11.752;2023-09-30T14:32:35;36.20;20.10
78054;DHT22;67726;45.636;11.752;2023-09-30T14:35:01;35.70;20.10
78054;DHT22;67726;45.636;11.752;2023-09-30T14:37:27;35.70;19.60
78054;DHT22;67726;45.636;11.752;2023-09-30T14:39:54;35.30;20.10
78054;DHT22;67726;45.636;11.752;2023-09-30T14:42:20;35.20;20.50
78054;DHT22;67726;45.636;11.752;2023-09-30T14:44:46;35.40;20.10
78054;DHT22;67726;45.636;11.752;2023-09-30T14:47:12;35.20;19.80
78054;DHT22;67726;45.636;11.752;2023-09-30T14:49:38;35.10;20.00
78054;DHT22;67726;45.636;11.752;2023-09-30T14:52:03;34.80;19.90
78054;DHT22;67726;45.636;11.752;2023-09-30T14:54:30;35.00;19.80
78054;DHT22;67726;45.636;11.752;2023-09-30T14:56:56;35.20;19.30
78054;DHT22;67726;45.636;11.752;2023-09-30T14:59:22;35.20;19.20
78054;DHT22;67726;45.636;11.752;2023-09-30T15:01:47;35.30;19.30
78054;DHT22;67726;45.636;11.752;2023-09-30T15:04:14;35.20;19.20
78054;DHT22;67726;45.636;11.752;2023-09-30T15:06:43;35.50;19.20
78054;DHT22;67726;45.636;11.752;2023-09-30T15:09:08;35.50;19.20
78054;DHT22;67726;45.636;11.752;2023-09-30T15:11:37;35.30;19.70
78054;DHT22;67726;45.636;11.752;2023-09-30T15:14:03;35.20;19.50
78054;DHT22;67726;45.636;11.752;2023-09-30T15:16:30;35.20;19.60
78054;DHT22;67726;45.636;11.752;2023-09-30T15:18:56;34.90;19.50
78054;DHT22;67726;45.636;11.752;2023-09-30T15:21:22;35.20;19.30
78054;DHT22;67726;45.636;11.752;2023-09-30T15:23:49;35.40;19.20
78054;DHT22;67726;45.636;11.752;2023-09-30T15:26:15;35.10;20.10
78054;DHT22;67726;45.636;11.752;2023-09-30T15:28:41;34.30;21.60
78054;DHT22;67726;45.636;11.752;2023-09-30T15:31:07;33.20;23.10